sensor_id;sensor_type;location;lat;lon;timestamp;temperature;humidity
27540;DHT22;15906;52.046;4.724;2024-02-04T00:01:49;10.50;99.90
27540;DHT22;15906;52.046;4.724;2024-02-04T00:04:14;10.50;99.90
27540;DHT22;15906;52.046;4.724;2024-02-04T00:06:40;10.50;99.90
27540;DHT22;15906;52.046;4.724;2024-02-04T00:09:05;10.60;99.90
27540;DHT22;15906;52.046;4.724;2024-02-04T00:11:32;10.50;99.90
27540;DHT22;15906;52.046;4.724;2024-02-04T00:13:57;10.60;99.90
27540;DHT22;15906;52.046;4.724;2024-02-04T00:16:23;10.60;99.90
27540;DHT22;15906;52.046;4.724;2024-02-04T00:18:48;10.60;99.90
27540;DHT22;15906;52.046;4.724;2024-02-04T00:21:14;10.60;99.90
27540;DHT22;15906;52.046;4.724;2024-02-04T00:23:39;10.60;99.90
27540;DHT22;15906;52.046;4.724;2024-02-04T00:26:05;10.60;99.90
27540;DHT22;15906;52.046;4.724;2024-02-04T00:28:30;10.60;99.90
27540;DHT22;15906;52.046;4.724;2024-02-04T00:30:56;10.60;99.90
27540;DHT22;15906;52.046;4.724;2024-02-04T00:33:24;10.70;99.90
27540;DHT22;15906;52.046;4.724;2024-02-04T00:35:50;10.80;99.90
27540;DHT22;15906;52.046;4.724;2024-02-04T00:38:16;10.70;99.90
27540;DHT22;15906;52.046;4.724;2024-02-04T00:40:41;10.70;99.90
27540;DHT22;15906;52.046;4.724;2024-02-04T00:43:07;10.70;99.90
27540;DHT22;15906;52.046;4.724;2024-02-04T00:45:32;10.70;99.90
27540;DHT22;15906;52.046;4.724;2024-02-04T00:47:58;10.80;99.90
27540;DHT22;15906;52.046;4.724;2024-02-04T00:50:23;10.70;99.90
27540;DHT22;15906;52.046;4.724;2024-02-04T00:52:49;10.70;99.90
27540;DHT22;15906;52.046;4.724;2024-02-04T00:55:15;10.70;99.90
27540;DHT22;15906;52.046;4.724;2024-02-04T00:57:40;10.60;99.90
27540;DHT22;15906;52.046;4.724;2024-02-04T01:00:06;10.60;99.90
27540;DHT22;15906;52.046;4.724;2024-02-04T01:02:33;10.70;99.90
27540;DHT22;15906;52.046;4.724;2024-02-04T01:04:59;10.70;99.90
27540;DHT22;15906;52.046;4.724;2024-02-04T01:07:25;10.60;99.90
27540;DHT22;15906;52.046;4.724;2024-02-04T01:09:50;10.70;99.90
27540;DHT22;15906;52.046;4.724;2024-02-04T01:12:16;10.70;99.90
27540;DHT22;15906;52.046;4.724;2024-02-04T01:14:41;10.60;99.90
27540;DHT22;15906;52.046;4.724;2024-02-04T01:17:07;10.60;99.90
27540;DHT22;15906;52.046;4.724;2024-02-04T01:19:33;10.60;99.90
27540;DHT22;15906;52.046;4.724;2024-02-04T01:21:59;10.60;99.90
27540;DHT22;15906;52.046;4.724;2024-02-04T01:24:24;10.60;99.90
27540;DHT22;15906;52.046;4.724;2024-02-04T01:26:50;10.50;99.90
27540;DHT22;15906;52.046;4.724;2024-02-04T01:29:16;10.60;99.90
27540;DHT22;15906;52.046;4.724;2024-02-04T01:31:42;10.70;99.90
27540;DHT22;15906;52.046;4.724;2024-02-04T01:34:07;10.60;99.90
27540;DHT22;15906;52.046;4.724;2024-02-04T01:36:33;10.70;99.90
27540;DHT22;15906;52.046;4.724;2024-02-04T01:38:58;10.70;99.90
27540;DHT22;15906;52.046;4.724;2024-02-04T01:41:24;10.70;99.90
27540;DHT22;15906;52.046;4.724;2024-02-04T01:43:53;10.60;99.90
27540;DHT22;15906;52.046;4.724;2024-02-04T01:46:18;10.60;99.90
27540;DHT22;15906;52.046;4.724;2024-02-04T01:48:44;10.60;99.90
27540;DHT22;15906;52.046;4.724;2024-02-04T01:51:10;10.60;99.90
27540;DHT22;15906;52.046;4.724;2024-02-04T01:53:36;10.60;99.90
27540;DHT22;15906;52.046;4.724;2024-02-04T01:56:04;10.60;99.90
27540;DHT22;15906;52.046;4.724;2024-02-04T01:58:30;10.50;99.90
27540;DHT22;15906;52.046;4.724;2024-02-04T02:00:56;10.50;99.90
27540;DHT22;15906;52.046;4.724;2024-02-04T02:03:23;10.40;99.90
27540;DHT22;15906;52.046;4.724;2024-02-04T02:05:49;10.40;99.90
27540;DHT22;15906;52.046;4.724;2024-02-04T02:08:16;10.50;99.90
27540;DHT22;15906;52.046;4.724;2024-02-04T02:10:41;10.40;99.90
27540;DHT22;15906;52.046;4.724;2024-02-04T02:13:17;10.40;99.90
27540;DHT22;15906;52.046;4.724;2024-02-04T02:15:52;10.40;99.90
27540;DHT22;15906;52.046;4.724;2024-02-04T02:21:13;10.30;99.90
27540;DHT22;15906;52.046;4.724;2024-02-04T02:24:14;10.40;99.90
27540;DHT22;15906;52.046;4.724;2024-02-04T02:26:41;10.30;99.90
27540;DHT22;15906;52.046;4.724;2024-02-04T02:29:07;10.30;99.90
27540;DHT22;15906;52.046;4.724;2024-02-04T02:31:37;10.30;99.90
27540;DHT22;15906;52.046;4.724;2024-02-04T02:34:03;10.20;99.90
27540;DHT22;15906;52.046;4.724;2024-02-04T02:36:31;10.20;99.90
27540;DHT22;15906;52.046;4.724;2024-02-04T02:39:17;10.20;99.90
27540;DHT22;15906;52.046;4.724;2024-02-04T02:41:49;10.20;99.90
27540;DHT22;15906;52.046;4.724;2024-02-04T02:44:15;10.20;99.90
27540;DHT22;15906;52.046;4.724;2024-02-04T02:46:42;10.20;99.90
27540;DHT22;15906;52.046;4.724;2024-02-04T02:49:08;10.20;99.90
27540;DHT22;15906;52.046;4.724;2024-02-04T02:51:34;10.20;99.90
27540;DHT22;15906;52.046;4.724;2024-02-04T02:53:59;10.10;99.90
27540;DHT22;15906;52.046;4.724;2024-02-04T02:56:25;10.00;99.90
27540;DHT22;15906;52.046;4.724;2024-02-04T02:58:50;10.00;99.90
27540;DHT22;15906;52.046;4.724;2024-02-04T03:01:16;9.90;99.90
27540;DHT22;15906;52.046;4.724;2024-02-04T03:03:41;9.90;99.90
27540;DHT22;15906;52.046;4.724;2024-02-04T03:06:07;9.90;99.90
27540;DHT22;15906;52.046;4.724;2024-02-04T03:08:33;9.90;99.90
27540;DHT22;15906;52.046;4.724;2024-02-04T03:10:58;10.00;99.90
27540;DHT22;15906;52.046;4.724;2024-02-04T03:13:24;9.90;99.90
27540;DHT22;15906;52.046;4.724;2024-02-04T03:15:49;9.90;99.90
27540;DHT22;15906;52.046;4.724;2024-02-04T03:18:15;9.90;99.90
27540;DHT22;15906;52.046;4.724;2024-02-04T03:20:41;10.00;99.90
27540;DHT22;15906;52.046;4.724;2024-02-04T03:23:06;10.00;99.90
27540;DHT22;15906;52.046;4.724;2024-02-04T03:25:32;10.10;99.90
27540;DHT22;15906;52.046;4.724;2024-02-04T03:27:57;10.00;99.90
27540;DHT22;15906;52.046;4.724;2024-02-04T03:30:23;10.10;99.90
27540;DHT22;15906;52.046;4.724;2024-02-04T03:32:48;10.10;99.90
27540;DHT22;15906;52.046;4.724;2024-02-04T03:35:14;10.10;99.90
27540;DHT22;15906;52.046;4.724;2024-02-04T03:37:39;10.00;99.90
27540;DHT22;15906;52.046;4.724;2024-02-04T03:40:05;10.00;99.90
27540;DHT22;15906;52.046;4.724;2024-02-04T03:42:31;10.00;99.90
27540;DHT22;15906;52.046;4.724;2024-02-04T03:44:56;10.00;99.90
27540;DHT22;15906;52.046;4.724;2024-02-04T03:47:22;10.10;99.90
27540;DHT22;15906;52.046;4.724;2024-02-04T03:49:47;10.10;99.90
27540;DHT22;15906;52.046;4.724;2024-02-04T03:52:13;10.10;99.90
27540;DHT22;15906;52.046;4.724;2024-02-04T03:54:39;10.00;99.90
27540;DHT22;15906;52.046;4.724;2024-02-04T03:57:04;10.00;99.90
27540;DHT22;15906;52.046;4.724;2024-02-04T03:59:30;10.00;99.90
27540;DHT22;15906;52.046;4.724;2024-02-04T04:01:55;10.00;99.90
27540;DHT22;15906;52.046;4.724;2024-02-04T04:04:23;10.00;99.90
27540;DHT22;15906;52.046;4.724;2024-02-04T04:06:48;10.00;99.90
27540;DHT22;15906;52.046;4.724;2024-02-04T04:09:14;10.00;99.90
27540;DHT22;15906;52.046;4.724;2024-02-04T04:11:40;10.00;99.90
27540;DHT22;15906;52.046;4.724;2024-02-04T04:14:06;10.10;99.90
27540;DHT22;15906;52.046;4.724;2024-02-04T04:16:31;10.10;99.90
27540;DHT22;15906;52.046;4.724;2024-02-04T04:18:57;10.00;99.90
27540;DHT22;15906;52.046;4.724;2024-02-04T04:21:24;10.00;99.90
27540;DHT22;15906;52.046;4.724;2024-02-04T04:23:50;10.10;99.90
27540;DHT22;15906;52.046;4.724;2024-02-04T04:26:15;10.00;99.90
27540;DHT22;15906;52.046;4.724;2024-02-04T04:28:41;10.00;99.90
27540;DHT22;15906;52.046;4.724;2024-02-04T04:31:06;10.10;99.90
27540;DHT22;15906;52.046;4.724;2024-02-04T04:33:32;10.00;99.90
27540;DHT22;15906;52.046;4.724;2024-02-04T04:35:57;10.00;99.90
27540;DHT22;15906;52.046;4.724;2024-02-04T04:38:23;10.00;99.90
27540;DHT22;15906;52.046;4.724;2024-02-04T04:40:49;9.90;99.90
27540;DHT22;15906;52.046;4.724;2024-02-04T04:43:14;9.90;99.90
27540;DHT22;15906;52.046;4.724;2024-02-04T04:45:40;9.80;99.90
27540;DHT22;15906;52.046;4.724;2024-02-04T04:48:06;10.00;99.90
27540;DHT22;15906;52.046;4.724;2024-02-04T04:50:35;9.90;99.90
27540;DHT22;15906;52.046;4.724;2024-02-04T04:53:01;9.80;99.90
27540;DHT22;15906;52.046;4.724;2024-02-04T04:55:26;9.90;99.90
27540;DHT22;15906;52.046;4.724;2024-02-04T04:57:52;9.80;99.90
27540;DHT22;15906;52.046;4.724;2024-02-04T05:00:18;9.90;99.90
27540;DHT22;15906;52.046;4.724;2024-02-04T05:02:44;9.90;99.90
27540;DHT22;15906;52.046;4.724;2024-02-04T05:05:12;9.80;99.90
27540;DHT22;15906;52.046;4.724;2024-02-04T05:07:38;9.90;99.90
27540;DHT22;15906;52.046;4.724;2024-02-04T05:10:04;9.90;99.90
27540;DHT22;15906;52.046;4.724;2024-02-04T05:12:31;9.80;99.90
27540;DHT22;15906;52.046;4.724;2024-02-04T05:14:57;10.00;99.90
27540;DHT22;15906;52.046;4.724;2024-02-04T05:17:22;10.00;99.90
27540;DHT22;15906;52.046;4.724;2024-02-04T05:19:48;9.90;99.90
27540;DHT22;15906;52.046;4.724;2024-02-04T05:22:13;9.90;99.90
27540;DHT22;15906;52.046;4.724;2024-02-04T05:24:39;9.90;99.90
27540;DHT22;15906;52.046;4.724;2024-02-04T05:27:06;9.80;99.90
27540;DHT22;15906;52.046;4.724;2024-02-04T05:29:31;9.90;99.90
27540;DHT22;15906;52.046;4.724;2024-02-04T05:31:57;9.80;99.90
27540;DHT22;15906;52.046;4.724;2024-02-04T05:34:23;9.80;99.90
27540;DHT22;15906;52.046;4.724;2024-02-04T05:36:48;9.80;99.90
27540;DHT22;15906;52.046;4.724;2024-02-04T05:39:15;9.80;99.90
27540;DHT22;15906;52.046;4.724;2024-02-04T05:41:41;9.80;99.90
27540;DHT22;15906;52.046;4.724;2024-02-04T05:44:07;9.80;99.90
27540;DHT22;15906;52.046;4.724;2024-02-04T05:46:35;9.80;99.90
27540;DHT22;15906;52.046;4.724;2024-02-04T05:49:00;9.70;99.90
27540;DHT22;15906;52.046;4.724;2024-02-04T05:51:26;9.80;99.90
27540;DHT22;15906;52.046;4.724;2024-02-04T05:53:52;9.80;99.90
27540;DHT22;15906;52.046;4.724;2024-02-04T05:56:18;9.80;99.90
27540;DHT22;15906;52.046;4.724;2024-02-04T05:58:43;9.90;99.90
27540;DHT22;15906;52.046;4.724;2024-02-04T06:01:09;9.80;99.90
27540;DHT22;15906;52.046;4.724;2024-02-04T06:03:34;9.80;99.90
27540;DHT22;15906;52.046;4.724;2024-02-04T06:06:00;9.80;99.90
27540;DHT22;15906;52.046;4.724;2024-02-04T06:08:25;9.80;99.90
27540;DHT22;15906;52.046;4.724;2024-02-04T06:10:51;9.80;99.90
27540;DHT22;15906;52.046;4.724;2024-02-04T06:13:16;9.80;99.90
27540;DHT22;15906;52.046;4.724;2024-02-04T06:15:42;9.80;99.90
27540;DHT22;15906;52.046;4.724;2024-02-04T06:18:07;9.80;99.90
27540;DHT22;15906;52.046;4.724;2024-02-04T06:20:33;9.80;99.90
27540;DHT22;15906;52.046;4.724;2024-02-04T06:22:59;9.80;99.90
27540;DHT22;15906;52.046;4.724;2024-02-04T06:25:24;9.80;99.90
27540;DHT22;15906;52.046;4.724;2024-02-04T06:27:50;9.80;99.90
27540;DHT22;15906;52.046;4.724;2024-02-04T06:30:15;9.90;99.90
27540;DHT22;15906;52.046;4.724;2024-02-04T06:32:41;9.90;99.90
27540;DHT22;15906;52.046;4.724;2024-02-04T06:35:07;10.00;99.90
27540;DHT22;15906;52.046;4.724;2024-02-04T06:37:33;10.00;99.90
27540;DHT22;15906;52.046;4.724;2024-02-04T06:39:58;9.90;99.90
27540;DHT22;15906;52.046;4.724;2024-02-04T06:42:24;9.90;99.90
27540;DHT22;15906;52.046;4.724;2024-02-04T06:44:49;9.90;99.90
27540;DHT22;15906;52.046;4.724;2024-02-04T06:47:15;9.90;99.90
27540;DHT22;15906;52.046;4.724;2024-02-04T06:49:44;10.00;99.90
27540;DHT22;15906;52.046;4.724;2024-02-04T06:52:10;10.10;99.90
27540;DHT22;15906;52.046;4.724;2024-02-04T06:54:36;10.00;99.90
27540;DHT22;15906;52.046;4.724;2024-02-04T06:57:02;10.10;99.90
27540;DHT22;15906;52.046;4.724;2024-02-04T06:59:27;10.00;99.90
27540;DHT22;15906;52.046;4.724;2024-02-04T07:01:53;10.00;99.90
27540;DHT22;15906;52.046;4.724;2024-02-04T07:04:19;10.10;99.90
27540;DHT22;15906;52.046;4.724;2024-02-04T07:06:47;10.10;99.90
27540;DHT22;15906;52.046;4.724;2024-02-04T07:09:12;10.10;99.90
27540;DHT22;15906;52.046;4.724;2024-02-04T07:11:38;10.10;99.90
27540;DHT22;15906;52.046;4.724;2024-02-04T07:14:04;10.10;99.90
27540;DHT22;15906;52.046;4.724;2024-02-04T07:16:31;10.10;99.90
27540;DHT22;15906;52.046;4.724;2024-02-04T07:18:57;10.10;99.90
27540;DHT22;15906;52.046;4.724;2024-02-04T07:21:22;10.10;99.90
27540;DHT22;15906;52.046;4.724;2024-02-04T07:23:48;10.00;99.90
27540;DHT22;15906;52.046;4.724;2024-02-04T07:26:14;10.10;99.90
27540;DHT22;15906;52.046;4.724;2024-02-04T07:28:39;10.00;99.90
27540;DHT22;15906;52.046;4.724;2024-02-04T07:31:05;10.10;99.90
27540;DHT22;15906;52.046;4.724;2024-02-04T07:33:30;10.00;99.90
27540;DHT22;15906;52.046;4.724;2024-02-04T07:35:56;10.10;99.90
27540;DHT22;15906;52.046;4.724;2024-02-04T07:38:21;10.10;99.90
27540;DHT22;15906;52.046;4.724;2024-02-04T07:40:47;10.10;99.90
27540;DHT22;15906;52.046;4.724;2024-02-04T07:43:12;10.10;99.90
27540;DHT22;15906;52.046;4.724;2024-02-04T07:45:38;10.10;99.90
27540;DHT22;15906;52.046;4.724;2024-02-04T07:48:04;10.10;99.90
27540;DHT22;15906;52.046;4.724;2024-02-04T07:50:30;10.10;99.90
27540;DHT22;15906;52.046;4.724;2024-02-04T07:52:55;10.10;99.90
27540;DHT22;15906;52.046;4.724;2024-02-04T07:55:21;10.10;99.90
27540;DHT22;15906;52.046;4.724;2024-02-04T07:57:46;10.20;99.90
27540;DHT22;15906;52.046;4.724;2024-02-04T08:00:12;10.10;99.90
27540;DHT22;15906;52.046;4.724;2024-02-04T08:02:38;10.10;99.90
27540;DHT22;15906;52.046;4.724;2024-02-04T08:05:04;10.20;99.90
27540;DHT22;15906;52.046;4.724;2024-02-04T08:07:30;10.20;99.90
27540;DHT22;15906;52.046;4.724;2024-02-04T08:09:56;10.20;99.90
27540;DHT22;15906;52.046;4.724;2024-02-04T08:12:21;10.30;99.90
27540;DHT22;15906;52.046;4.724;2024-02-04T08:14:47;10.30;99.90
27540;DHT22;15906;52.046;4.724;2024-02-04T08:17:13;10.20;99.90
27540;DHT22;15906;52.046;4.724;2024-02-04T08:19:38;10.20;99.90
27540;DHT22;15906;52.046;4.724;2024-02-04T08:22:04;10.30;99.90
27540;DHT22;15906;52.046;4.724;2024-02-04T08:24:32;10.20;99.90
27540;DHT22;15906;52.046;4.724;2024-02-04T08:26:58;10.30;99.90
27540;DHT22;15906;52.046;4.724;2024-02-04T08:29:24;10.30;99.90
27540;DHT22;15906;52.046;4.724;2024-02-04T08:31:49;10.30;99.90
27540;DHT22;15906;52.046;4.724;2024-02-04T08:34:15;10.30;99.90
27540;DHT22;15906;52.046;4.724;2024-02-04T08:36:41;10.30;99.90
27540;DHT22;15906;52.046;4.724;2024-02-04T08:39:06;10.30;99.90
27540;DHT22;15906;52.046;4.724;2024-02-04T08:41:32;10.40;99.90
27540;DHT22;15906;52.046;4.724;2024-02-04T08:43:57;10.30;99.90
27540;DHT22;15906;52.046;4.724;2024-02-04T08:46:23;10.40;99.90
27540;DHT22;15906;52.046;4.724;2024-02-04T08:48:48;10.40;99.90
27540;DHT22;15906;52.046;4.724;2024-02-04T08:51:14;10.30;99.90
27540;DHT22;15906;52.046;4.724;2024-02-04T08:53:42;10.40;99.90
27540;DHT22;15906;52.046;4.724;2024-02-04T08:56:08;10.40;99.90
27540;DHT22;15906;52.046;4.724;2024-02-04T08:58:34;10.30;99.90
27540;DHT22;15906;52.046;4.724;2024-02-04T09:00:59;10.40;99.90
27540;DHT22;15906;52.046;4.724;2024-02-04T09:03:25;10.50;99.90
27540;DHT22;15906;52.046;4.724;2024-02-04T09:05:51;10.50;99.90
27540;DHT22;15906;52.046;4.724;2024-02-04T09:08:16;10.50;99.90
27540;DHT22;15906;52.046;4.724;2024-02-04T09:10:42;10.40;99.90
27540;DHT22;15906;52.046;4.724;2024-02-04T09:13:07;10.50;99.90
27540;DHT22;15906;52.046;4.724;2024-02-04T09:15:33;10.50;99.90
27540;DHT22;15906;52.046;4.724;2024-02-04T09:17:58;10.40;99.90
27540;DHT22;15906;52.046;4.724;2024-02-04T09:20:24;10.50;99.90
27540;DHT22;15906;52.046;4.724;2024-02-04T09:22:49;10.50;99.90
27540;DHT22;15906;52.046;4.724;2024-02-04T09:25:15;10.50;99.90
27540;DHT22;15906;52.046;4.724;2024-02-04T09:27:40;10.60;99.90
27540;DHT22;15906;52.046;4.724;2024-02-04T09:30:06;10.60;99.90
27540;DHT22;15906;52.046;4.724;2024-02-04T09:32:32;10.60;99.90
27540;DHT22;15906;52.046;4.724;2024-02-04T09:34:57;10.60;99.90
27540;DHT22;15906;52.046;4.724;2024-02-04T09:37:24;10.70;99.90
27540;DHT22;15906;52.046;4.724;2024-02-04T09:39:49;10.70;99.90
27540;DHT22;15906;52.046;4.724;2024-02-04T09:42:21;10.70;99.90
27540;DHT22;15906;52.046;4.724;2024-02-04T09:44:49;10.70;99.90
27540;DHT22;15906;52.046;4.724;2024-02-04T09:47:15;10.70;99.90
27540;DHT22;15906;52.046;4.724;2024-02-04T09:49:41;10.80;99.90
27540;DHT22;15906;52.046;4.724;2024-02-04T09:52:08;10.80;99.90
27540;DHT22;15906;52.046;4.724;2024-02-04T09:54:44;10.80;99.90
27540;DHT22;15906;52.046;4.724;2024-02-04T09:57:12;10.80;99.90
27540;DHT22;15906;52.046;4.724;2024-02-04T09:59:38;10.90;99.90
27540;DHT22;15906;52.046;4.724;2024-02-04T10:02:03;10.90;99.90
27540;DHT22;15906;52.046;4.724;2024-02-04T10:04:30;10.80;99.90
27540;DHT22;15906;52.046;4.724;2024-02-04T10:06:55;10.80;99.90
27540;DHT22;15906;52.046;4.724;2024-02-04T10:09:21;10.70;99.90
27540;DHT22;15906;52.046;4.724;2024-02-04T10:11:47;10.70;99.90
27540;DHT22;15906;52.046;4.724;2024-02-04T10:14:12;10.60;99.90
27540;DHT22;15906;52.046;4.724;2024-02-04T10:16:38;10.60;99.90
27540;DHT22;15906;52.046;4.724;2024-02-04T10:19:05;10.60;99.90
27540;DHT22;15906;52.046;4.724;2024-02-04T10:21:30;10.60;99.90
27540;DHT22;15906;52.046;4.724;2024-02-04T10:23:56;10.60;99.90
27540;DHT22;15906;52.046;4.724;2024-02-04T10:26:23;10.60;99.90
27540;DHT22;15906;52.046;4.724;2024-02-04T10:28:49;10.50;99.90
27540;DHT22;15906;52.046;4.724;2024-02-04T10:31:15;10.50;99.90
27540;DHT22;15906;52.046;4.724;2024-02-04T10:33:40;10.50;99.90
27540;DHT22;15906;52.046;4.724;2024-02-04T10:36:06;10.40;99.90
27540;DHT22;15906;52.046;4.724;2024-02-04T10:38:32;10.40;99.90
27540;DHT22;15906;52.046;4.724;2024-02-04T10:41:00;10.40;99.90
27540;DHT22;15906;52.046;4.724;2024-02-04T10:43:32;10.40;99.90
27540;DHT22;15906;52.046;4.724;2024-02-04T10:48:37;10.50;99.90
27540;DHT22;15906;52.046;4.724;2024-02-04T10:51:14;10.50;99.90
27540;DHT22;15906;52.046;4.724;2024-02-04T10:53:44;10.50;99.90
27540;DHT22;15906;52.046;4.724;2024-02-04T10:56:26;10.50;99.90
27540;DHT22;15906;52.046;4.724;2024-02-04T10:58:55;10.50;99.90
27540;DHT22;15906;52.046;4.724;2024-02-04T11:01:22;10.60;99.90
27540;DHT22;15906;52.046;4.724;2024-02-04T11:03:49;10.70;99.90
27540;DHT22;15906;52.046;4.724;2024-02-04T11:06:16;10.60;99.90
27540;DHT22;15906;52.046;4.724;2024-02-04T11:08:42;10.70;99.90
27540;DHT22;15906;52.046;4.724;2024-02-04T11:11:09;10.60;99.90
27540;DHT22;15906;52.046;4.724;2024-02-04T11:13:35;10.70;99.90
27540;DHT22;15906;52.046;4.724;2024-02-04T11:16:05;10.70;99.90
27540;DHT22;15906;52.046;4.724;2024-02-04T11:18:54;10.70;99.90
27540;DHT22;15906;52.046;4.724;2024-02-04T11:21:41;10.70;99.90
27540;DHT22;15906;52.046;4.724;2024-02-04T11:24:26;10.80;99.90
27540;DHT22;15906;52.046;4.724;2024-02-04T11:26:55;10.80;99.90
27540;DHT22;15906;52.046;4.724;2024-02-04T11:29:21;10.90;99.90
27540;DHT22;15906;52.046;4.724;2024-02-04T11:31:47;10.90;99.90
27540;DHT22;15906;52.046;4.724;2024-02-04T11:34:13;10.90;99.90
27540;DHT22;15906;52.046;4.724;2024-02-04T11:36:39;10.90;99.90
27540;DHT22;15906;52.046;4.724;2024-02-04T11:39:17;10.90;99.90
27540;DHT22;15906;52.046;4.724;2024-02-04T11:41:47;10.90;99.90
27540;DHT22;15906;52.046;4.724;2024-02-04T11:44:12;10.90;99.90
27540;DHT22;15906;52.046;4.724;2024-02-04T11:46:38;11.00;99.90
27540;DHT22;15906;52.046;4.724;2024-02-04T11:49:14;11.00;99.90
27540;DHT22;15906;52.046;4.724;2024-02-04T11:51:41;11.10;99.90
27540;DHT22;15906;52.046;4.724;2024-02-04T11:54:07;11.10;99.90
27540;DHT22;15906;52.046;4.724;2024-02-04T11:56:32;11.10;99.90
27540;DHT22;15906;52.046;4.724;2024-02-04T11:58:59;11.20;99.90
27540;DHT22;15906;52.046;4.724;2024-02-04T12:01:24;11.10;99.90
27540;DHT22;15906;52.046;4.724;2024-02-04T12:03:51;11.10;99.90
27540;DHT22;15906;52.046;4.724;2024-02-04T12:06:17;11.10;99.90
27540;DHT22;15906;52.046;4.724;2024-02-04T12:08:43;11.10;99.90
27540;DHT22;15906;52.046;4.724;2024-02-04T12:11:09;11.20;99.90
27540;DHT22;15906;52.046;4.724;2024-02-04T12:13:35;11.20;99.90
27540;DHT22;15906;52.046;4.724;2024-02-04T12:16:05;11.30;99.90
27540;DHT22;15906;52.046;4.724;2024-02-04T12:18:33;11.20;99.90
27540;DHT22;15906;52.046;4.724;2024-02-04T12:20:59;11.20;99.90
27540;DHT22;15906;52.046;4.724;2024-02-04T12:23:25;11.30;99.90
27540;DHT22;15906;52.046;4.724;2024-02-04T12:25:52;11.30;99.90
27540;DHT22;15906;52.046;4.724;2024-02-04T12:28:17;11.30;99.90
27540;DHT22;15906;52.046;4.724;2024-02-04T12:30:54;11.30;99.90
27540;DHT22;15906;52.046;4.724;2024-02-04T12:33:20;11.30;99.90
27540;DHT22;15906;52.046;4.724;2024-02-04T12:35:50;11.40;99.90
27540;DHT22;15906;52.046;4.724;2024-02-04T12:38:16;11.50;99.90
27540;DHT22;15906;52.046;4.724;2024-02-04T12:40:43;11.60;99.90
27540;DHT22;15906;52.046;4.724;2024-02-04T12:43:11;11.60;99.90
27540;DHT22;15906;52.046;4.724;2024-02-04T12:45:36;11.60;99.90
27540;DHT22;15906;52.046;4.724;2024-02-04T12:48:02;11.50;99.90
27540;DHT22;15906;52.046;4.724;2024-02-04T12:50:28;11.50;99.90
27540;DHT22;15906;52.046;4.724;2024-02-04T12:53:04;11.50;99.90
27540;DHT22;15906;52.046;4.724;2024-02-04T12:55:31;11.40;99.90
27540;DHT22;15906;52.046;4.724;2024-02-04T12:58:05;11.40;99.90
27540;DHT22;15906;52.046;4.724;2024-02-04T13:00:31;11.40;99.90
27540;DHT22;15906;52.046;4.724;2024-02-04T13:02:58;11.40;99.90
27540;DHT22;15906;52.046;4.724;2024-02-04T13:05:24;11.40;99.90
27540;DHT22;15906;52.046;4.724;2024-02-04T13:07:56;11.30;99.90
27540;DHT22;15906;52.046;4.724;2024-02-04T13:10:23;11.20;99.90
27540;DHT22;15906;52.046;4.724;2024-02-04T13:13:06;11.20;99.90
27540;DHT22;15906;52.046;4.724;2024-02-04T13:15:40;11.20;99.90
27540;DHT22;15906;52.046;4.724;2024-02-04T13:18:06;11.20;99.90
27540;DHT22;15906;52.046;4.724;2024-02-04T13:20:31;11.20;99.90
27540;DHT22;15906;52.046;4.724;2024-02-04T13:22:57;11.20;99.90
27540;DHT22;15906;52.046;4.724;2024-02-04T13:25:24;11.10;99.90
27540;DHT22;15906;52.046;4.724;2024-02-04T13:27:50;11.20;99.90
27540;DHT22;15906;52.046;4.724;2024-02-04T13:30:16;11.10;99.90
27540;DHT22;15906;52.046;4.724;2024-02-04T13:32:43;11.10;99.90
27540;DHT22;15906;52.046;4.724;2024-02-04T13:35:09;11.10;99.90
27540;DHT22;15906;52.046;4.724;2024-02-04T13:37:43;11.10;99.90
27540;DHT22;15906;52.046;4.724;2024-02-04T13:40:13;11.20;99.90
27540;DHT22;15906;52.046;4.724;2024-02-04T13:42:39;11.20;99.90
27540;DHT22;15906;52.046;4.724;2024-02-04T13:45:05;11.20;99.90
27540;DHT22;15906;52.046;4.724;2024-02-04T13:47:31;11.30;99.90
27540;DHT22;15906;52.046;4.724;2024-02-04T13:49:56;11.30;99.90
27540;DHT22;15906;52.046;4.724;2024-02-04T13:52:22;11.40;99.90
27540;DHT22;15906;52.046;4.724;2024-02-04T13:54:48;11.40;99.90
27540;DHT22;15906;52.046;4.724;2024-02-04T13:57:14;11.40;99.90
27540;DHT22;15906;52.046;4.724;2024-02-04T13:59:39;11.40;99.90
27540;DHT22;15906;52.046;4.724;2024-02-04T14:02:05;11.40;99.90
27540;DHT22;15906;52.046;4.724;2024-02-04T14:04:33;11.30;99.90
27540;DHT22;15906;52.046;4.724;2024-02-04T14:06:58;11.30;99.90
27540;DHT22;15906;52.046;4.724;2024-02-04T14:09:24;11.30;99.90
27540;DHT22;15906;52.046;4.724;2024-02-04T14:11:49;11.40;99.90
27540;DHT22;15906;52.046;4.724;2024-02-04T14:14:15;11.30;99.90
27540;DHT22;15906;52.046;4.724;2024-02-04T14:16:40;11.40;99.90
27540;DHT22;15906;52.046;4.724;2024-02-04T14:19:06;11.40;99.90
27540;DHT22;15906;52.046;4.724;2024-02-04T14:21:32;11.30;99.90
27540;DHT22;15906;52.046;4.724;2024-02-04T14:23:57;11.30;99.90
27540;DHT22;15906;52.046;4.724;2024-02-04T14:26:23;11.30;99.90
27540;DHT22;15906;52.046;4.724;2024-02-04T14:28:48;11.30;99.90
27540;DHT22;15906;52.046;4.724;2024-02-04T14:31:14;11.30;99.90
27540;DHT22;15906;52.046;4.724;2024-02-04T14:33:40;11.30;99.90
27540;DHT22;15906;52.046;4.724;2024-02-04T14:36:07;11.30;99.90
27540;DHT22;15906;52.046;4.724;2024-02-04T14:38:33;11.30;99.90
27540;DHT22;15906;52.046;4.724;2024-02-04T14:40:59;11.30;99.90
27540;DHT22;15906;52.046;4.724;2024-02-04T14:43:25;11.30;99.90
27540;DHT22;15906;52.046;4.724;2024-02-04T14:45:51;11.20;99.90
27540;DHT22;15906;52.046;4.724;2024-02-04T14:48:16;11.20;99.90
27540;DHT22;15906;52.046;4.724;2024-02-04T14:50:42;11.20;99.90
27540;DHT22;15906;52.046;4.724;2024-02-04T14:53:08;11.20;99.90
27540;DHT22;15906;52.046;4.724;2024-02-04T14:55:33;11.30;99.90
27540;DHT22;15906;52.046;4.724;2024-02-04T14:57:59;11.30;99.90
27540;DHT22;15906;52.046;4.724;2024-02-04T15:00:25;11.30;99.90
27540;DHT22;15906;52.046;4.724;2024-02-04T15:02:53;11.30;99.90
27540;DHT22;15906;52.046;4.724;2024-02-04T15:05:19;11.30;99.90
27540;DHT22;15906;52.046;4.724;2024-02-04T15:07:50;11.30;99.90
27540;DHT22;15906;52.046;4.724;2024-02-04T15:10:17;11.40;99.90
27540;DHT22;15906;52.046;4.724;2024-02-04T15:12:42;11.30;99.90
27540;DHT22;15906;52.046;4.724;2024-02-04T15:15:09;11.30;99.90
27540;DHT22;15906;52.046;4.724;2024-02-04T15:17:35;11.30;99.90
27540;DHT22;15906;52.046;4.724;2024-02-04T15:20:01;11.40;99.90
27540;DHT22;15906;52.046;4.724;2024-02-04T15:22:28;11.30;99.90
27540;DHT22;15906;52.046;4.724;2024-02-04T15:24:54;11.30;99.90
27540;DHT22;15906;52.046;4.724;2024-02-04T15:27:20;11.30;99.90
27540;DHT22;15906;52.046;4.724;2024-02-04T15:29:47;11.30;99.90
27540;DHT22;15906;52.046;4.724;2024-02-04T15:32:14;11.30;99.90
27540;DHT22;15906;52.046;4.724;2024-02-04T15:34:41;11.40;99.90